Time;durP1;ratioP1;P1;durP2;ratioP2;P2;SDS_P1;SDS_P2;PMS_P1;PMS_P2;Temp;Humidity;BMP_temperature;BMP_pressure;BME280_temperature;BME280_humidity;BME280_pressure;Samples;Min_cycle;Max_cycle;Signal;HPM_P1;HPM_P2
2023/10/19 00:01:25;;;;;;;20.67;7.82;;;21.50;99.90;;;;;;5092900;28;20520;-69
2023/10/19 00:03:55;;;;;;;23.30;7.47;;;21.50;99.90;;;;;;5093315;28;20051;-70
2023/10/19 00:06:23;;;;;;;20.77;6.80;;;21.50;99.90;;;;;;5093200;28;20021;-70
2023/10/19 00:08:52;;;;;;;19.63;7.35;;;21.50;99.90;;;;;;5093241;28;20118;-70
2023/10/19 00:11:26;;;;;;;17.13;6.97;;;21.40;99.90;;;;;;5092845;28;20469;-69
2023/10/19 00:13:57;;;;;;;17.25;7.18;;;21.40;99.90;;;;;;5092749;28;20030;-69
2023/10/19 00:16:29;;;;;;;18.27;6.90;;;21.40;99.90;;;;;;5092983;28;20449;-71
2023/10/19 00:18:59;;;;;;;11.25;6.07;;;21.40;99.90;;;;;;5074392;28;20379;-70
2023/10/19 00:21:30;;;;;;;17.70;6.00;;;21.40;99.90;;;;;;5093004;28;20039;-69
2023/10/19 00:23:57;;;;;;;13.25;6.35;;;21.50;99.90;;;;;;5092696;28;20020;-70
2023/10/19 00:26:29;;;;;;;16.35;5.82;;;21.50;99.90;;;;;;5092795;28;20024;-69
2023/10/19 00:28:56;;;;;;;21.73;6.18;;;21.50;99.90;;;;;;5092449;28;20433;-69
2023/10/19 00:31:23;;;;;;;13.73;5.25;;;21.50;99.90;;;;;;5092433;28;20111;-68
2023/10/19 00:33:54;;;;;;;15.82;5.63;;;21.70;99.90;;;;;;5092157;28;20027;-70
2023/10/19 00:36:22;;;;;;;14.27;5.70;;;21.70;99.90;;;;;;5091883;28;20310;-67
2023/10/19 00:41:22;;;;;;;17.70;6.47;;;21.70;99.90;;;;;;5091753;28;20097;-68
2023/10/19 00:43:49;;;;;;;14.65;5.93;;;21.70;99.90;;;;;;5091914;28;20032;-69
2023/10/19 00:48:58;;;;;;;15.10;6.60;;;21.50;99.90;;;;;;5092034;28;20035;-70
2023/10/19 00:57:48;;;;;;;13.50;5.57;;;21.30;99.90;;;;;;5092018;28;20123;-69
2023/10/19 00:59:54;;;;;;;14.13;6.43;;;21.30;99.90;;;;;;5085901;28;20078;-69
2023/10/19 01:05:05;;;;;;;16.63;6.72;;;21.30;99.90;;;;;;5091544;28;20024;-68
2023/10/19 01:07:33;;;;;;;17.13;6.38;;;21.20;99.90;;;;;;5073174;28;20111;-68
2023/10/19 01:10:05;;;;;;;17.85;6.60;;;21.20;99.90;;;;;;5073288;28;20103;-69
2023/10/19 01:15:06;;;;;;;20.83;6.53;;;21.20;99.90;;;;;;5091310;28;20111;-69
2023/10/19 01:17:34;;;;;;;16.23;7.07;;;21.20;99.90;;;;;;5091429;28;20023;-68
2023/10/19 01:20:11;;;;;;;15.35;6.95;;;21.20;99.90;;;;;;5091622;28;20091;-70
2023/10/19 01:22:42;;;;;;;17.15;7.20;;;21.10;99.90;;;;;;5090959;28;20038;-70
2023/10/19 01:25:10;;;;;;;19.30;7.05;;;21.00;99.90;;;;;;5091893;28;20107;-68
2023/10/19 01:27:38;;;;;;;16.42;6.78;;;21.00;99.90;;;;;;5072564;28;20028;-68
2023/10/19 01:30:09;;;;;;;14.73;7.07;;;21.00;99.90;;;;;;5091121;28;20024;-68
2023/10/19 01:32:35;;;;;;;18.17;6.85;;;21.00;99.90;;;;;;5072738;28;20514;-70
2023/10/19 01:35:01;;;;;;;20.70;7.57;;;21.00;99.90;;;;;;5091120;28;20028;-70
2023/10/19 01:37:27;;;;;;;20.40;6.80;;;21.00;99.90;;;;;;5091301;28;20395;-69
2023/10/19 01:39:53;;;;;;;18.35;7.07;;;21.00;99.90;;;;;;5090833;28;20127;-70
2023/10/19 01:42:20;;;;;;;13.13;6.88;;;21.00;99.90;;;;;;5090794;28;20036;-69
2023/10/19 01:44:46;;;;;;;;;;;21.00;99.90;;;;;;5091013;28;20042;-69
2023/10/19 01:47:12;;;;;;;14.77;7.22;;;21.00;99.90;;;;;;5090599;28;20305;-69
2023/10/19 01:49:38;;;;;;;16.17;7.13;;;21.00;99.90;;;;;;5090717;28;20032;-69
2023/10/19 01:52:04;;;;;;;20.63;6.78;;;21.00;99.90;;;;;;5090897;28;20027;-68
2023/10/19 01:54:30;;;;;;;17.35;6.70;;;21.00;99.90;;;;;;5091035;28;20107;-69
2023/10/19 01:56:57;;;;;;;14.38;6.40;;;21.00;99.90;;;;;;5090720;28;20030;-69
2023/10/19 01:59:31;;;;;;;17.10;6.38;;;21.00;99.90;;;;;;5090585;28;20028;-70
2023/10/19 02:01:57;;;;;;;18.13;6.57;;;21.00;99.90;;;;;;5090716;28;20028;-68
2023/10/19 02:04:25;;;;;;;19.65;7.15;;;21.00;99.90;;;;;;5090995;28;20055;-70
2023/10/19 02:06:53;;;;;;;16.00;6.55;;;21.00;99.90;;;;;;5090823;28;20032;-69
2023/10/19 02:09:29;;;;;;;20.50;6.50;;;21.00;99.90;;;;;;5091018;28;20019;-69
2023/10/19 02:11:57;;;;;;;23.48;6.70;;;21.00;99.90;;;;;;5091174;28;20062;-69
2023/10/19 02:14:31;;;;;;;20.02;6.07;;;21.00;99.90;;;;;;5090509;28;20081;-69
2023/10/19 02:16:59;;;;;;;18.48;5.68;;;21.10;99.90;;;;;;5090578;28;20036;-69
2023/10/19 02:19:27;;;;;;;14.75;5.55;;;21.20;99.90;;;;;;5090610;28;20075;-70
2023/10/19 02:22:07;;;;;;;14.02;5.28;;;21.20;99.90;;;;;;5072410;28;20094;-69
2023/10/19 02:24:33;;;;;;;17.73;5.85;;;21.30;99.90;;;;;;5090655;28;20067;-69
2023/10/19 02:27:01;;;;;;;13.70;5.65;;;21.30;99.90;;;;;;5090647;28;20440;-69
2023/10/19 02:29:27;;;;;;;23.27;5.30;;;21.30;99.90;;;;;;5090285;28;20073;-69
2023/10/19 02:31:54;;;;;;;18.88;5.78;;;21.30;99.90;;;;;;5090175;28;20103;-68
2023/10/19 02:34:22;;;;;;;19.10;5.63;;;21.30;99.90;;;;;;5090436;28;20020;-68
2023/10/19 02:36:49;;;;;;;13.27;5.60;;;21.40;99.90;;;;;;5090565;28;20142;-68
2023/10/19 02:39:18;;;;;;;15.85;5.70;;;21.40;99.90;;;;;;5090148;28;20108;-69
2023/10/19 02:41:48;;;;;;;15.00;5.35;;;21.30;99.90;;;;;;5090094;28;20477;-67
2023/10/19 02:46:52;;;;;;;16.13;5.40;;;21.20;99.90;;;;;;5090550;28;20032;-68
2023/10/19 02:49:20;;;;;;;16.10;5.80;;;21.20;99.90;;;;;;5090452;28;20069;-68
2023/10/19 02:51:47;;;;;;;16.08;5.70;;;21.20;99.90;;;;;;5071665;28;20032;-68
2023/10/19 02:54:19;;;;;;;13.68;5.53;;;21.20;99.90;;;;;;5089672;28;20038;-68
2023/10/19 02:56:51;;;;;;;13.40;5.75;;;21.20;99.90;;;;;;5090575;28;20017;-67
2023/10/19 02:59:24;;;;;;;14.07;5.05;;;21.20;99.90;;;;;;5073813;28;20341;-68
2023/10/19 03:02:00;;;;;;;22.52;5.15;;;21.20;99.90;;;;;;5094814;28;20092;-69
2023/10/19 03:04:28;;;;;;;15.85;5.05;;;21.20;99.90;;;;;;5094336;28;20044;-69
2023/10/19 03:06:57;;;;;;;15.70;4.80;;;21.30;99.90;;;;;;5095201;28;20020;-69
2023/10/19 03:11:55;;;;;;;14.10;4.40;;;21.30;99.90;;;;;;5095083;28;20089;-68
2023/10/19 03:14:24;;;;;;;17.45;5.35;;;21.30;99.90;;;;;;5094922;28;20101;-69
2023/10/19 03:16:52;;;;;;;15.27;5.13;;;21.30;99.90;;;;;;5095430;28;20028;-68
2023/10/19 03:19:20;;;;;;;11.93;4.85;;;21.30;99.90;;;;;;5094890;28;20081;-68
2023/10/19 03:21:49;;;;;;;17.02;5.32;;;21.30;99.90;;;;;;5094882;28;20024;-69
2023/10/19 03:27:17;;;;;;;15.80;4.88;;;21.30;99.90;;;;;;5095679;28;20058;-68
2023/10/19 03:29:53;;;;;;;13.55;4.68;;;21.40;99.90;;;;;;5095042;28;20034;-69
2023/10/19 03:32:22;;;;;;;16.45;4.78;;;21.60;99.90;;;;;;5095726;28;20091;-68
2023/10/19 03:34:55;;;;;;;21.30;5.50;;;21.70;99.90;;;;;;5094889;28;20032;-68
2023/10/19 03:37:25;;;;;;;21.30;4.78;;;21.70;99.90;;;;;;5094917;28;20032;-68
2023/10/19 03:39:51;;;;;;;15.73;4.95;;;21.70;99.90;;;;;;5076420;28;20044;-69
2023/10/19 03:42:20;;;;;;;20.38;4.95;;;21.60;99.90;;;;;;5095053;28;20119;-68
2023/10/19 03:47:28;;;;;;;15.57;4.68;;;21.50;99.90;;;;;;5094814;28;20032;-69
2023/10/19 03:49:54;;;;;;;13.98;4.65;;;21.50;99.90;;;;;;5095031;28;20012;-67
2023/10/19 03:52:20;;;;;;;;;;;21.50;99.90;;;;;;5095596;28;20479;-68
2023/10/19 03:54:47;;;;;;;14.63;4.78;;;21.40;99.90;;;;;;5094634;28;19955;-69
2023/10/19 03:57:25;;;;;;;15.88;5.15;;;21.50;99.90;;;;;;5094677;28;20020;-69
2023/10/19 03:59:57;;;;;;;15.40;4.32;;;21.50;99.90;;;;;;5076316;28;20116;-68
2023/10/19 04:02:29;;;;;;;11.25;4.15;;;21.50;99.90;;;;;;5094778;28;20116;-68
2023/10/19 04:04:57;;;;;;;17.50;5.05;;;21.60;99.90;;;;;;5076287;28;20069;-68
2023/10/19 04:07:25;;;;;;;17.98;5.45;;;21.50;99.90;;;;;;5094435;28;20024;-68
2023/10/19 04:12:25;;;;;;;17.13;4.90;;;21.60;99.90;;;;;;5093840;28;20047;-68
2023/10/19 04:14:51;;;;;;;18.02;4.68;;;21.50;99.90;;;;;;5094115;28;20035;-69
2023/10/19 04:17:20;;;;;;;16.23;4.53;;;21.50;99.90;;;;;;5094430;28;20387;-69
2023/10/19 04:19:55;;;;;;;15.20;4.50;;;21.50;99.90;;;;;;5076664;28;20027;-68
2023/10/19 04:22:24;;;;;;;17.27;4.45;;;21.50;99.90;;;;;;5094760;28;20035;-68
2023/10/19 04:24:53;;;;;;;14.07;4.57;;;21.50;99.90;;;;;;5094658;28;20135;-69
2023/10/19 04:27:23;;;;;;;11.70;4.85;;;21.50;99.90;;;;;;5095183;28;20042;-68
2023/10/19 04:29:49;;;;;;;11.88;4.95;;;21.50;99.90;;;;;;5076238;28;20107;-69
2023/10/19 04:32:23;;;;;;;;;;;21.50;99.90;;;;;;5095604;28;20070;-68
2023/10/19 04:34:49;;;;;;;16.20;5.38;;;21.50;99.90;;;;;;5094585;28;19904;-68
2023/10/19 04:37:18;;;;;;;18.77;5.22;;;21.50;99.90;;;;;;5095038;28;20353;-70
2023/10/19 04:39:45;;;;;;;17.17;4.70;;;21.50;99.90;;;;;;5094422;28;20135;-68
2023/10/19 04:42:10;;;;;;;;;;;21.50;99.90;;;;;;5095322;28;20064;-69
2023/10/19 04:44:36;;;;;;;14.75;5.05;;;21.40;99.90;;;;;;5094292;28;19922;-69
2023/10/19 04:47:03;;;;;;;19.90;5.68;;;21.40;99.90;;;;;;5094855;28;20021;-68
2023/10/19 04:49:29;;;;;;;;;;;21.40;99.90;;;;;;5095064;28;20020;-68
2023/10/19 04:51:55;;;;;;;16.88;4.53;;;21.40;99.90;;;;;;5094276;28;20367;-69
2023/10/19 04:54:21;;;;;;;23.63;5.25;;;21.30;99.90;;;;;;5094211;28;20039;-69
2023/10/19 04:56:48;;;;;;;13.45;4.50;;;21.30;99.90;;;;;;5094040;28;20036;-68
2023/10/19 04:59:14;;;;;;;20.75;5.00;;;21.30;99.90;;;;;;5093893;28;20021;-70
2023/10/19 05:01:41;;;;;;;22.27;4.90;;;21.30;99.90;;;;;;5094026;28;20060;-69
2023/10/19 05:04:07;;;;;;;14.95;5.30;;;21.20;99.90;;;;;;5094215;28;20034;-68
2023/10/19 05:06:33;;;;;;;19.55;5.68;;;21.10;99.90;;;;;;5093490;28;20028;-69
2023/10/19 05:08:59;;;;;;;18.70;5.28;;;21.10;99.90;;;;;;5093363;28;20133;-69
2023/10/19 05:11:25;;;;;;;23.55;5.30;;;21.10;99.90;;;;;;5075301;28;20024;-70
2023/10/19 05:13:51;;;;;;;17.38;4.85;;;21.10;99.90;;;;;;5093231;28;20077;-69
2023/10/19 05:16:17;;;;;;;23.67;5.00;;;21.10;99.90;;;;;;5093578;28;20147;-69
2023/10/19 05:18:43;;;;;;;25.20;5.97;;;21.10;99.90;;;;;;5094037;28;20077;-69
2023/10/19 05:21:10;;;;;;;12.50;5.35;;;21.00;99.90;;;;;;5093011;28;20036;-69
2023/10/19 05:23:36;;;;;;;13.13;5.22;;;21.00;99.90;;;;;;5093232;28;20028;-69
2023/10/19 05:26:04;;;;;;;18.95;5.75;;;21.10;99.90;;;;;;5093148;28;20020;-70
2023/10/19 05:28:30;;;;;;;22.42;5.50;;;21.00;99.90;;;;;;5092694;28;20099;-69
2023/10/19 05:30:58;;;;;;;23.75;5.75;;;21.00;99.90;;;;;;5092698;28;20472;-69
2023/10/19 05:33:25;;;;;;;17.63;5.40;;;20.90;99.90;;;;;;5092551;28;20024;-70
2023/10/19 05:35:52;;;;;;;20.17;5.55;;;20.90;99.90;;;;;;5092555;28;20044;-69
2023/10/19 05:38:22;;;;;;;13.10;5.47;;;20.90;99.90;;;;;;5092404;28;20028;-69
2023/10/19 05:40:50;;;;;;;12.43;5.18;;;21.00;99.90;;;;;;5073980;28;20045;-70
2023/10/19 05:43:17;;;;;;;17.02;5.28;;;21.00;99.90;;;;;;5092348;28;20388;-70
2023/10/19 05:45:43;;;;;;;13.07;5.15;;;21.00;99.90;;;;;;5074307;28;20103;-69
2023/10/19 05:48:11;;;;;;;16.15;5.40;;;21.20;99.90;;;;;;5092354;28;20024;-69
2023/10/19 05:50:37;;;;;;;14.85;5.18;;;21.40;99.90;;;;;;5091616;28;20020;-69
2023/10/19 05:53:05;;;;;;;20.20;5.50;;;21.50;99.90;;;;;;5091879;28;20439;-69
2023/10/19 05:55:32;;;;;;;21.70;5.50;;;21.70;99.90;;;;;;5091025;28;20103;-69
2023/10/19 05:57:59;;;;;;;15.02;4.78;;;22.10;99.90;;;;;;5091201;28;20040;-68
2023/10/19 06:00:25;;;;;;;14.10;4.47;;;22.30;99.90;;;;;;5091099;28;20497;-69
2023/10/19 06:02:52;;;;;;;16.52;5.03;;;22.50;99.90;;;;;;5090857;28;20112;-68
2023/10/19 06:05:19;;;;;;;;;;;22.70;99.90;;;;;;5092521;28;20098;-69
2023/10/19 06:07:46;;;;;;;16.80;4.38;;;22.90;99.90;;;;;;5091032;28;20005;-68
2023/10/19 06:10:20;;;;;;;16.83;4.47;;;23.40;99.90;;;;;;5090878;28;20032;-68
2023/10/19 06:12:48;;;;;;;17.15;5.00;;;23.70;99.90;;;;;;5091292;28;20022;-71
2023/10/19 06:15:15;;;;;;;22.02;5.13;;;23.90;99.90;;;;;;5091000;28;20039;-69
2023/10/19 06:17:43;;;;;;;16.30;4.75;;;24.00;99.90;;;;;;5091548;28;20103;-69
2023/10/19 06:20:23;;;;;;;14.23;4.30;;;24.30;99.90;;;;;;5091655;28;20032;-69
2023/10/19 06:22:51;;;;;;;16.77;4.63;;;24.30;99.90;;;;;;5091934;28;20035;-68
2023/10/19 06:25:22;;;;;;;17.30;5.10;;;24.40;99.90;;;;;;5091437;28;20051;-69
2023/10/19 06:27:49;;;;;;;15.18;4.07;;;24.40;99.90;;;;;;5072915;28;20476;-69
2023/10/19 06:30:21;;;;;;;13.07;4.63;;;24.70;99.90;;;;;;5072873;28;20024;-68
2023/10/19 06:32:50;;;;;;;16.52;4.90;;;24.80;99.90;;;;;;5092062;28;20051;-70
2023/10/19 06:35:18;;;;;;;16.60;5.00;;;24.80;99.90;;;;;;5094431;28;20486;-68
2023/10/19 06:37:44;;;;;;;16.17;5.03;;;24.90;99.90;;;;;;5096290;28;20102;-69
2023/10/19 06:40:12;;;;;;;14.35;4.57;;;24.90;99.90;;;;;;5095169;28;20044;-68
2023/10/19 06:42:39;;;;;;;23.00;5.13;;;25.20;99.90;;;;;;5095469;28;20047;-68
2023/10/19 06:45:07;;;;;;;14.85;4.75;;;25.10;99.90;;;;;;5095179;28;20024;-69
2023/10/19 06:47:37;;;;;;;16.83;6.35;;;25.10;99.90;;;;;;5095342;28;20032;-69
2023/10/19 06:50:07;;;;;;;14.55;5.53;;;25.30;99.90;;;;;;5095612;28;20200;-70
2023/10/19 06:52:35;;;;;;;19.88;5.40;;;25.60;99.90;;;;;;5077911;28;20060;-68
2023/10/19 06:55:13;;;;;;;11.50;4.57;;;25.80;99.90;;;;;;5095035;28;20086;-69
2023/10/19 06:57:43;;;;;;;18.80;4.88;;;26.10;99.90;;;;;;5094656;28;20024;-69
2023/10/19 07:00:14;;;;;;;16.75;4.57;;;26.20;99.90;;;;;;5076400;28;20113;-68
2023/10/19 07:02:44;;;;;;;17.33;3.97;;;26.60;99.90;;;;;;5095603;28;20068;-69
2023/10/19 07:05:18;;;;;;;16.60;4.18;;;26.90;99.90;;;;;;5095714;28;20103;-69
2023/10/19 07:07:45;;;;;;;18.83;4.78;;;27.30;99.90;;;;;;5095148;28;20107;-70
2023/10/19 07:10:15;;;;;;;13.90;3.70;;;27.70;99.90;;;;;;5094760;28;20411;-69
2023/10/19 07:12:42;;;;;;;15.75;3.92;;;27.70;99.90;;;;;;5095485;28;20024;-70
2023/10/19 07:15:19;;;;;;;16.45;3.90;;;26.70;99.90;;;;;;5094871;28;20416;-69
2023/10/19 07:17:46;;;;;;;19.77;4.10;;;27.00;99.90;;;;;;5095354;28;20058;-70
2023/10/19 07:20:31;;;;;;;20.10;3.90;;;27.50;99.90;;;;;;5094897;28;20028;-71
2023/10/19 07:23:03;;;;;;;18.35;3.83;;;27.40;99.90;;;;;;5076972;28;20046;-67
2023/10/19 07:25:31;;;;;;;17.13;3.47;;;27.20;99.90;;;;;;5094570;28;20060;-69
2023/10/19 07:27:59;;;;;;;20.95;4.45;;;27.00;99.90;;;;;;5094456;28;20027;-69
2023/10/19 07:30:28;;;;;;;16.23;3.30;;;27.00;99.90;;;;;;5094456;28;20020;-68
2023/10/19 07:32:58;;;;;;;21.85;3.63;;;27.10;99.90;;;;;;5094371;28;20051;-70
2023/10/19 07:35:25;;;;;;;17.75;3.75;;;27.20;99.90;;;;;;5094681;28;20111;-70
2023/10/19 07:37:52;;;;;;;18.17;3.85;;;27.30;99.90;;;;;;5094558;28;20562;-69
2023/10/19 07:40:18;;;;;;;;;;;27.30;99.90;;;;;;5094831;28;20051;-71
2023/10/19 07:42:44;;;;;;;;;;;27.50;99.90;;;;;;5094638;28;19958;-69
2023/10/19 07:45:13;;;;;;;18.25;4.18;;;27.30;99.90;;;;;;5093477;28;19963;-70
2023/10/19 07:47:41;;;;;;;15.55;3.22;;;27.20;99.90;;;;;;5093617;28;20051;-69
2023/10/19 07:50:17;;;;;;;21.85;3.95;;;27.10;99.90;;;;;;5093536;28;20103;-69
2023/10/19 07:52:44;;;;;;;16.70;3.60;;;27.30;99.90;;;;;;5093606;28;20039;-69
2023/10/19 07:55:10;;;;;;;13.18;3.65;;;27.20;99.90;;;;;;5093501;28;20016;-70
2023/10/19 07:57:37;;;;;;;;;;;27.30;99.90;;;;;;5093943;28;20081;-70
2023/10/19 08:00:04;;;;;;;13.73;3.10;;;27.50;99.90;;;;;;5093083;28;20337;-69
2023/10/19 08:02:30;;;;;;;17.00;3.97;;;27.50;99.90;;;;;;5093308;28;20075;-70
2023/10/19 08:04:57;;;;;;;9.23;2.95;;;27.80;99.90;;;;;;5075536;28;20111;-70
2023/10/19 08:07:26;;;;;;;16.30;3.45;;;28.10;99.90;;;;;;5093112;28;20036;-69
2023/10/19 08:09:52;;;;;;;14.20;3.15;;;28.10;99.90;;;;;;5092996;28;20026;-69
2023/10/19 08:12:18;;;;;;;;;;;27.90;99.90;;;;;;5093470;28;20081;-69
2023/10/19 08:14:46;;;;;;;15.15;3.28;;;27.90;99.90;;;;;;5093024;28;19987;-69
2023/10/19 08:17:12;;;;;;;15.45;3.20;;;27.80;99.90;;;;;;5093855;28;20437;-70
2023/10/19 08:19:38;;;;;;;11.43;3.08;;;27.50;99.90;;;;;;5093426;28;20085;-70
2023/10/19 08:22:05;;;;;;;14.50;3.10;;;27.50;99.90;;;;;;5093987;28;20066;-69
2023/10/19 08:24:34;;;;;;;14.82;3.10;;;27.40;99.90;;;;;;5074914;28;20106;-69
2023/10/19 08:27:01;;;;;;;16.88;3.03;;;27.80;99.90;;;;;;5093334;28;20429;-70
2023/10/19 08:29:28;;;;;;;13.57;3.65;;;27.90;99.90;;;;;;5093183;28;20028;-69
2023/10/19 08:31:55;;;;;;;23.02;3.60;;;28.00;99.90;;;;;;5093271;28;20121;-69
2023/10/19 08:34:24;;;;;;;15.73;3.40;;;27.80;99.90;;;;;;5093263;28;20016;-70
2023/10/19 08:36:50;;;;;;;11.77;3.65;;;28.10;99.90;;;;;;5074877;28;20122;-70
2023/10/19 08:39:17;;;;;;;14.32;3.53;;;28.00;99.90;;;;;;5075014;28;20476;-69
2023/10/19 08:41:44;;;;;;;15.55;3.67;;;28.00;99.90;;;;;;5071365;28;20053;-70
2023/10/19 08:44:10;;;;;;;20.08;4.10;;;28.40;99.90;;;;;;5073115;28;20021;-70
2023/10/19 08:46:44;;;;;;;15.10;3.55;;;28.00;99.90;;;;;;5072587;28;20069;-70
2023/10/19 08:49:12;;;;;;;24.13;3.70;;;28.30;99.90;;;;;;5072332;28;20107;-69
2023/10/19 08:51:39;;;;;;;13.23;3.10;;;28.40;99.90;;;;;;5072507;28;20036;-67
2023/10/19 08:54:06;;;;;;;21.45;3.33;;;28.40;99.90;;;;;;5072653;28;20118;-70
2023/10/19 08:56:35;;;;;;;13.30;2.83;;;28.00;99.90;;;;;;5071894;28;20024;-69
2023/10/19 08:59:01;;;;;;;15.48;3.67;;;28.10;99.90;;;;;;5072533;28;20111;-69
2023/10/19 09:01:28;;;;;;;;;;;28.00;99.90;;;;;;5072868;28;20079;-69
2023/10/19 09:03:58;;;;;;;14.38;3.45;;;27.80;99.90;;;;;;5071054;28;19904;-69
2023/10/19 09:06:25;;;;;;;17.40;3.47;;;28.00;99.90;;;;;;5073092;28;20029;-69
2023/10/19 09:08:51;;;;;;;21.15;3.88;;;28.20;99.90;;;;;;5072372;28;20028;-70
2023/10/19 09:11:20;;;;;;;;;;;28.40;99.90;;;;;;5072735;28;20028;-71
2023/10/19 09:13:50;;;;;;;16.45;3.40;;;28.70;99.90;;;;;;5072293;28;19968;-70
2023/10/19 09:16:17;;;;;;;20.83;3.80;;;28.80;99.90;;;;;;5072054;28;20024;-70
2023/10/19 09:18:47;;;;;;;12.98;3.45;;;28.90;99.90;;;;;;5072201;28;20102;-68
2023/10/19 09:21:26;;;;;;;21.73;3.97;;;28.90;99.90;;;;;;5072370;28;20035;-70
2023/10/19 09:23:54;;;;;;;32.30;3.78;;;29.10;99.90;;;;;;5072782;28;20016;-69
2023/10/19 09:26:22;;;;;;;18.10;3.83;;;29.20;99.90;;;;;;5072503;28;20111;-70
2023/10/19 09:28:50;;;;;;;17.42;4.38;;;29.10;99.90;;;;;;5072359;28;20021;-69
2023/10/19 09:31:18;;;;;;;21.75;4.20;;;29.30;99.90;;;;;;5072119;28;20060;-71
2023/10/19 09:33:45;;;;;;;17.05;3.50;;;29.30;99.90;;;;;;5072021;28;20027;-71
2023/10/19 09:36:13;;;;;;;21.35;4.03;;;29.40;99.90;;;;;;5071835;28;20544;-70
2023/10/19 09:38:57;;;;;;;14.90;3.85;;;29.50;99.90;;;;;;5071543;28;20016;-70
2023/10/19 09:41:28;;;;;;;19.83;3.67;;;29.60;99.90;;;;;;5088737;28;20043;-70
2023/10/19 09:44:02;;;;;;;22.00;3.42;;;29.90;99.90;;;;;;5092299;28;20024;-70
2023/10/19 09:46:32;;;;;;;18.35;3.50;;;29.80;99.90;;;;;;5092012;28;20426;-69
2023/10/19 09:48:59;;;;;;;22.67;3.30;;;30.00;99.90;;;;;;5091672;28;20055;-69
2023/10/19 09:51:25;;;;;;;21.45;3.40;;;29.90;99.90;;;;;;5092245;28;20480;-70
2023/10/19 09:54:17;;;;;;;14.13;3.10;;;29.50;99.90;;;;;;5092442;28;20038;-71
2023/10/19 09:56:52;;;;;;;14.00;3.08;;;29.90;99.90;;;;;;5068746;28;20044;-69
2023/10/19 09:59:29;;;;;;;19.90;3.72;;;30.00;99.90;;;;;;5073400;28;20143;-70
2023/10/19 10:02:15;;;;;;;45.53;4.10;;;30.10;99.90;;;;;;5091954;28;20095;-70
2023/10/19 10:04:43;;;;;;;25.58;3.20;;;30.20;99.90;;;;;;5073262;28;20039;-71
2023/10/19 10:07:09;;;;;;;16.80;3.15;;;30.30;99.90;;;;;;5091347;28;20027;-70
2023/10/19 10:09:39;;;;;;;;;;;30.50;99.90;;;;;;5091476;28;20103;-71
2023/10/19 10:12:26;;;;;;;16.92;3.10;;;30.60;99.90;;;;;;5091586;28;20273;-70
2023/10/19 10:14:55;;;;;;;14.82;3.65;;;30.50;99.90;;;;;;5091615;28;20149;-70
2023/10/19 10:17:22;;;;;;;15.80;3.42;;;30.50;99.90;;;;;;5091413;28;20086;-68
2023/10/19 10:19:49;;;;;;;18.52;3.17;;;30.60;99.90;;;;;;5091813;28;20053;-70
2023/10/19 10:22:21;;;;;;;16.10;3.20;;;30.80;99.90;;;;;;5092152;28;20072;-70
2023/10/19 10:24:53;;;;;;;17.33;3.50;;;30.90;99.90;;;;;;5092197;28;20020;-70
2023/10/19 10:27:20;;;;;;;17.63;3.30;;;30.90;99.90;;;;;;5091670;28;20028;-69
2023/10/19 10:30:01;;;;;;;55.42;5.13;;;30.60;99.90;;;;;;5091367;28;20100;-70
2023/10/19 10:32:56;;;;;;;20.42;3.83;;;30.70;99.90;;;;;;5091487;28;20025;-69
2023/10/19 10:35:54;;;;;;;33.47;3.88;;;30.50;99.90;;;;;;5092287;28;20012;-70
2023/10/19 10:38:20;;;;;;;22.27;3.65;;;30.70;99.90;;;;;;5076486;28;20480;-69
2023/10/19 10:40:50;;;;;;;;;;;30.60;99.90;;;;;;5092101;28;20349;-69
2023/10/19 10:43:17;;;;;;;22.73;3.80;;;30.50;99.90;;;;;;5092204;28;19916;-70
2023/10/19 10:45:44;;;;;;;15.52;3.45;;;30.10;99.90;;;;;;5091786;28;20055;-69
2023/10/19 10:48:18;;;;;;;19.88;3.40;;;30.30;99.90;;;;;;5091495;28;20396;-70
2023/10/19 10:50:46;;;;;;;19.20;3.72;;;30.30;99.90;;;;;;5091323;28;20016;-70
2023/10/19 10:53:17;;;;;;;18.98;3.40;;;30.40;99.90;;;;;;5090445;28;20085;-70
2023/10/19 10:55:43;;;;;;;19.77;3.72;;;30.50;99.90;;;;;;5090931;28;20028;-70
2023/10/19 10:58:09;;;;;;;;;;;30.20;99.90;;;;;;5072966;28;20522;-70
2023/10/19 11:00:51;;;;;;;13.55;2.80;;;30.20;99.90;;;;;;5072634;28;19904;-70
2023/10/19 11:03:17;;;;;;;24.42;3.63;;;30.30;99.90;;;;;;5091055;28;20043;-69
2023/10/19 11:05:45;;;;;;;16.25;3.38;;;30.40;99.90;;;;;;5090999;28;20022;-69
2023/10/19 11:08:13;;;;;;;15.77;3.53;;;30.20;99.90;;;;;;5091692;28;20028;-69
2023/10/19 11:10:46;;;;;;;21.92;3.70;;;30.10;99.90;;;;;;5091205;28;20502;-69
2023/10/19 11:13:18;;;;;;;69.85;5.55;;;30.20;99.90;;;;;;5091413;28;20035;-69
2023/10/19 11:15:56;;;;;;;21.83;3.08;;;30.20;99.90;;;;;;5090457;28;20031;-70
2023/10/19 11:18:45;;;;;;;22.40;3.70;;;30.20;99.90;;;;;;5091892;28;20024;-69
2023/10/19 11:21:14;;;;;;;18.85;3.30;;;30.20;99.90;;;;;;5094101;28;20384;-69
2023/10/19 11:23:48;;;;;;;15.25;3.20;;;30.10;99.90;;;;;;5094959;28;20032;-70
2023/10/19 11:26:17;;;;;;;25.30;3.78;;;30.30;99.90;;;;;;5094919;28;20102;-70
2023/10/19 11:28:54;;;;;;;21.55;3.53;;;30.30;99.90;;;;;;5095161;28;20020;-70
2023/10/19 11:31:25;;;;;;;26.00;3.38;;;30.30;99.90;;;;;;5095032;28;20115;-70
2023/10/19 11:33:53;;;;;;;23.00;3.50;;;30.20;99.90;;;;;;5095202;28;20488;-70
2023/10/19 11:36:20;;;;;;;36.95;7.05;;;30.40;99.90;;;;;;5095058;28;20131;-70
2023/10/19 11:38:48;;;;;;;24.52;3.30;;;30.30;99.90;;;;;;5095106;28;20499;-70
2023/10/19 11:41:15;;;;;;;15.90;3.25;;;30.20;99.90;;;;;;5094935;28;20055;-70
2023/10/19 11:43:43;;;;;;;26.67;4.10;;;30.20;99.90;;;;;;5095053;28;20028;-69
2023/10/19 11:46:11;;;;;;;26.15;6.28;;;30.00;99.90;;;;;;5094811;28;20114;-69
2023/10/19 11:48:39;;;;;;;26.20;10.88;;;30.10;99.90;;;;;;5095248;28;20016;-69
2023/10/19 11:51:06;;;;;;;22.70;4.05;;;30.10;99.90;;;;;;5094452;28;20393;-70
2023/10/19 11:53:34;;;;;;;30.85;4.75;;;30.40;99.90;;;;;;5094588;28;20027;-70
2023/10/19 11:56:05;;;;;;;17.15;3.50;;;30.40;99.90;;;;;;5094664;28;20024;-71
2023/10/19 11:58:37;;;;;;;21.75;3.17;;;30.50;99.90;;;;;;5094688;28;20020;-70
2023/10/19 12:01:08;;;;;;;18.85;3.40;;;30.60;99.90;;;;;;5094393;28;20026;-70
2023/10/19 12:03:37;;;;;;;23.08;3.50;;;30.50;99.90;;;;;;5094130;28;20525;-69
2023/10/19 12:06:10;;;;;;;16.08;3.30;;;30.10;99.90;;;;;;5094727;28;20107;-69
2023/10/19 12:08:37;;;;;;;20.08;3.28;;;29.70;99.90;;;;;;5095708;28;20020;-69
2023/10/19 12:11:14;;;;;;;18.35;3.25;;;29.90;99.90;;;;;;5094889;28;20017;-69
2023/10/19 12:13:44;;;;;;;18.25;3.00;;;29.90;99.90;;;;;;5095261;28;20031;-69
2023/10/19 12:16:17;;;;;;;24.52;3.63;;;29.50;99.90;;;;;;5094396;28;20377;-71
2023/10/19 12:18:44;;;;;;;15.95;2.97;;;29.70;99.90;;;;;;5094576;28;20085;-69
2023/10/19 12:21:14;;;;;;;17.90;3.60;;;29.80;99.90;;;;;;5094453;28;20029;-70
2023/10/19 12:23:43;;;;;;;17.13;3.28;;;29.80;99.90;;;;;;5094922;28;20028;-69
2023/10/19 12:26:12;;;;;;;15.00;3.10;;;29.90;99.90;;;;;;5094769;28;20027;-69
2023/10/19 12:28:40;;;;;;;21.50;2.80;;;30.00;99.90;;;;;;5095233;28;20530;-69
2023/10/19 12:31:09;;;;;;;45.63;3.95;;;29.90;99.90;;;;;;5093928;28;20047;-70
2023/10/19 12:33:36;;;;;;;16.13;3.20;;;29.90;99.90;;;;;;5094601;28;20028;-69
2023/10/19 12:36:21;;;;;;;20.08;3.03;;;29.90;99.90;;;;;;5076172;28;20397;-70
2023/10/19 12:38:49;;;;;;;22.25;3.20;;;29.90;99.90;;;;;;5094691;28;20016;-70
2023/10/19 12:41:15;;;;;;;17.67;3.05;;;29.80;99.90;;;;;;5093794;28;20059;-70
2023/10/19 12:43:41;;;;;;;51.70;3.97;;;30.10;99.90;;;;;;5094715;28;20103;-70
2023/10/19 12:46:08;;;;;;;24.52;4.00;;;30.10;99.90;;;;;;5093927;28;20056;-69
2023/10/19 12:48:35;;;;;;;17.00;3.28;;;30.00;99.90;;;;;;5094040;28;20020;-70
2023/10/19 12:51:01;;;;;;;23.25;3.25;;;30.00;99.90;;;;;;5093756;28;20480;-69
2023/10/19 12:53:28;;;;;;;21.90;3.00;;;29.80;99.90;;;;;;5093583;28;20020;-69
2023/10/19 12:55:53;;;;;;;;;;;29.60;99.90;;;;;;5094749;28;20503;-68
2023/10/19 12:58:20;;;;;;;25.20;3.50;;;29.50;99.90;;;;;;5094052;28;20000;-68
2023/10/19 13:00:48;;;;;;;28.35;4.45;;;29.50;99.90;;;;;;5075127;28;20161;-69
2023/10/19 13:03:16;;;;;;;17.70;3.70;;;29.60;99.90;;;;;;5093723;28;20027;-67
2023/10/19 13:05:44;;;;;;;18.30;3.72;;;29.70;99.90;;;;;;5093417;28;20046;-69
2023/10/19 13:08:14;;;;;;;24.33;3.80;;;30.00;99.90;;;;;;5093433;28;20020;-68
2023/10/19 13:10:45;;;;;;;21.08;3.38;;;29.90;99.90;;;;;;5094304;28;20069;-69
2023/10/19 13:13:13;;;;;;;20.90;3.53;;;29.70;99.90;;;;;;5093624;28;20016;-68
2023/10/19 13:15:41;;;;;;;31.95;4.07;;;29.40;99.90;;;;;;5093043;28;20034;-66
2023/10/19 13:18:10;;;;;;;20.50;3.45;;;29.20;99.90;;;;;;5093445;28;20020;-69
2023/10/19 13:20:38;;;;;;;23.65;4.05;;;29.30;99.90;;;;;;5093434;28;20031;-69